createdAt,value
2017-08-17T00:00:13.135Z,1009.95
2017-08-17T00:01:13.122Z,1009.95
2017-08-17T00:02:13.113Z,1009.93
2017-08-17T00:03:13.106Z,1009.92
2017-08-17T00:04:13.098Z,1009.89
2017-08-17T00:05:13.083Z,1009.89
2017-08-17T00:06:13.074Z,1009.86
2017-08-17T00:07:13.065Z,1009.83
2017-08-17T00:08:13.053Z,1009.89
2017-08-17T00:09:13.044Z,1009.88
2017-08-17T00:10:13.032Z,1009.88
2017-08-17T00:11:13.024Z,1009.87
2017-08-17T00:12:13.014Z,1009.9
2017-08-17T00:13:13.053Z,1009.84
2017-08-17T00:14:12.993Z,1009.83
2017-08-17T00:15:12.983Z,1009.78
2017-08-17T00:16:12.976Z,1009.75
2017-08-17T00:17:12.963Z,1009.73
2017-08-17T00:18:13.003Z,1009.68
2017-08-17T00:19:12.946Z,1009.65
2017-08-17T00:20:12.942Z,1009.6
2017-08-17T00:21:12.928Z,1009.61
2017-08-17T00:22:12.916Z,1009.61
2017-08-17T00:23:12.910Z,1009.56
2017-08-17T00:24:12.897Z,1009.57
2017-08-17T00:25:12.884Z,1009.53
2017-08-17T00:26:12.873Z,1009.54
2017-08-17T00:27:12.866Z,1009.53
2017-08-17T00:28:12.853Z,1009.49
2017-08-17T00:29:12.842Z,1009.52
2017-08-17T00:30:12.832Z,1009.5
2017-08-17T00:31:12.824Z,1009.49
2017-08-17T00:32:12.812Z,1009.49
2017-08-17T00:33:12.801Z,1009.5
2017-08-17T00:34:12.842Z,1009.57
2017-08-17T00:35:12.782Z,1009.58
2017-08-17T00:36:12.772Z,1009.58
2017-08-17T00:37:12.761Z,1009.6
2017-08-17T00:38:12.751Z,1009.58
2017-08-17T00:39:12.745Z,1009.65
2017-08-17T00:40:12.729Z,1009.6
2017-08-17T00:41:12.721Z,1009.62
2017-08-17T00:42:12.712Z,1009.59
2017-08-17T00:43:12.700Z,1009.63
2017-08-17T00:44:12.689Z,1009.6
2017-08-17T00:45:12.680Z,1009.57
2017-08-17T00:46:12.669Z,1009.55
2017-08-17T00:47:12.657Z,1009.49
2017-08-17T00:48:12.649Z,1009.47
2017-08-17T00:49:12.638Z,1009.45
2017-08-17T00:50:12.629Z,1009.47
2017-08-17T00:51:12.619Z,1009.43
2017-08-17T00:52:12.615Z,1009.42
2017-08-17T00:53:12.597Z,1009.42
2017-08-17T00:54:12.589Z,1009.4
2017-08-17T00:55:12.577Z,1009.42
2017-08-17T00:56:12.774Z,1009.4
2017-08-17T00:57:12.558Z,1009.4
2017-08-17T00:58:12.545Z,1009.41
2017-08-17T00:59:12.535Z,1009.36
2017-08-17T01:00:12.526Z,1009.37
2017-08-17T01:01:12.515Z,1009.35
2017-08-17T01:02:12.505Z,1009.37
2017-08-17T01:03:12.495Z,1009.35
2017-08-17T01:04:12.484Z,1009.35
2017-08-17T01:05:12.472Z,1009.32
2017-08-17T01:06:12.463Z,1009.32
2017-08-17T01:07:12.455Z,1009.37
2017-08-17T01:08:12.446Z,1009.39
2017-08-17T01:09:12.439Z,1009.35
2017-08-17T01:10:12.423Z,1009.38
2017-08-17T01:11:12.414Z,1009.41
2017-08-17T01:12:12.400Z,1009.43
2017-08-17T01:13:12.390Z,1009.42
2017-08-17T01:14:12.381Z,1009.4
2017-08-17T01:15:12.371Z,1009.41
2017-08-17T01:16:12.358Z,1009.39
2017-08-17T01:17:12.348Z,1009.34
2017-08-17T01:18:12.339Z,1009.32
2017-08-17T01:19:12.333Z,1009.3
2017-08-17T01:20:12.319Z,1009.31
2017-08-17T01:21:12.306Z,1009.27
2017-08-17T01:22:12.297Z,1009.27
2017-08-17T01:23:12.284Z,1009.21
2017-08-17T01:24:12.273Z,1009.26
2017-08-17T01:25:12.263Z,1009.27
2017-08-17T01:26:12.254Z,1009.24
2017-08-17T01:27:12.243Z,1009.28
2017-08-17T01:28:12.235Z,1009.24
2017-08-17T01:29:12.223Z,1009.2
2017-08-17T01:30:12.217Z,1009.25
2017-08-17T01:31:12.203Z,1009.23
2017-08-17T01:32:12.190Z,1009.2
2017-08-17T01:33:12.183Z,1009.19
2017-08-17T01:34:12.169Z,1009.18
2017-08-17T01:35:12.160Z,1009.2
2017-08-17T01:36:12.148Z,1009.26
2017-08-17T01:37:12.141Z,1009.2
2017-08-17T01:38:12.128Z,1009.21
2017-08-17T01:39:12.118Z,1009.21
2017-08-17T01:40:12.108Z,1009.21
2017-08-17T01:41:12.100Z,1009.18
2017-08-17T01:42:12.086Z,1009.2
2017-08-17T01:43:12.073Z,1009.19
2017-08-17T01:44:12.065Z,1009.21
2017-08-17T01:45:12.053Z,1009.23
2017-08-17T01:46:12.244Z,1009.22
2017-08-17T01:47:12.034Z,1009.2
2017-08-17T01:48:12.021Z,1009.21
2017-08-17T01:49:12.011Z,1009.19
2017-08-17T01:50:12.000Z,1009.21
2017-08-17T01:51:11.992Z,1009.18
2017-08-17T01:52:11.979Z,1009.18
2017-08-17T01:53:11.970Z,1009.17
2017-08-17T01:54:11.957Z,1009.19
2017-08-17T01:55:11.946Z,1009.2
2017-08-17T01:56:11.937Z,1009.19
2017-08-17T01:57:11.926Z,1009.19
2017-08-17T01:58:11.924Z,1009.18
2017-08-17T01:59:11.907Z,1009.14
2017-08-17T02:00:11.893Z,1009.1
2017-08-17T02:01:11.883Z,1009.07
2017-08-17T02:02:11.873Z,1009.06
2017-08-17T02:03:11.861Z,1009.03
2017-08-17T02:04:11.852Z,1009.03
2017-08-17T02:05:11.841Z,1009.02
2017-08-17T02:06:11.828Z,1009.03
2017-08-17T02:07:11.820Z,1009.03
2017-08-17T02:08:12.010Z,1008.99
2017-08-17T02:09:11.798Z,1009.01
2017-08-17T02:10:11.785Z,1008.97
2017-08-17T02:11:11.775Z,1008.97
2017-08-17T02:12:11.767Z,1008.95
2017-08-17T02:13:11.753Z,1008.98
2017-08-17T02:14:11.745Z,1008.98
2017-08-17T02:15:11.730Z,1008.97
2017-08-17T02:16:11.722Z,1008.98
2017-08-17T02:17:11.710Z,1008.96
2017-08-17T02:18:11.704Z,1008.96
2017-08-17T02:19:11.688Z,1008.98
2017-08-17T02:20:11.679Z,1008.96
2017-08-17T02:21:11.668Z,1008.97
2017-08-17T02:22:11.656Z,1008.98
2017-08-17T02:23:11.646Z,1008.97
2017-08-17T02:24:11.635Z,1008.99
2017-08-17T02:25:11.628Z,1008.96
2017-08-17T02:26:11.612Z,1008.96
2017-08-17T02:27:11.603Z,1009
2017-08-17T02:28:11.591Z,1008.93
2017-08-17T02:29:11.580Z,1008.95
2017-08-17T02:30:11.569Z,1008.95
2017-08-17T02:31:11.559Z,1008.95
2017-08-17T02:32:11.549Z,1008.95
2017-08-17T02:33:11.535Z,1008.93
2017-08-17T02:34:11.525Z,1008.91
2017-08-17T02:35:11.514Z,1008.89
2017-08-17T02:36:11.503Z,1008.9
2017-08-17T02:37:11.494Z,1008.9
2017-08-17T02:38:11.481Z,1008.92
2017-08-17T02:39:11.474Z,1008.95
2017-08-17T02:40:11.464Z,1008.95
2017-08-17T02:41:11.450Z,1008.99
2017-08-17T02:42:11.438Z,1008.96
2017-08-17T02:43:11.427Z,1008.94
2017-08-17T02:44:11.417Z,1008.9
2017-08-17T02:45:11.456Z,1008.91
2017-08-17T02:46:11.396Z,1008.91
2017-08-17T02:47:11.383Z,1008.88
2017-08-17T02:48:11.371Z,1008.92
2017-08-17T02:49:11.361Z,1008.91
2017-08-17T02:50:11.351Z,1008.92
2017-08-17T02:51:11.338Z,1008.87
2017-08-17T02:52:11.330Z,1008.89
2017-08-17T02:53:11.320Z,1008.84
2017-08-17T02:54:11.307Z,1008.86
2017-08-17T02:55:11.293Z,1008.84
2017-08-17T02:56:11.284Z,1008.83
2017-08-17T02:57:11.273Z,1008.82
2017-08-17T02:58:11.262Z,1008.82
2017-08-17T02:59:11.251Z,1008.83
2017-08-17T03:00:11.240Z,1008.88
2017-08-17T03:01:11.228Z,1008.86
2017-08-17T03:02:11.218Z,1008.89
2017-08-17T03:03:11.207Z,1008.84
2017-08-17T03:04:11.195Z,1008.83
2017-08-17T03:05:11.185Z,1008.84
2017-08-17T03:06:11.175Z,1008.83
2017-08-17T03:07:11.166Z,1008.89
2017-08-17T03:08:11.151Z,1008.86
2017-08-17T03:09:11.143Z,1008.86
2017-08-17T03:10:11.131Z,1008.88
2017-08-17T03:11:11.119Z,1008.91
2017-08-17T03:12:11.107Z,1008.86
2017-08-17T03:13:11.096Z,1008.84
2017-08-17T03:14:11.085Z,1008.86
2017-08-17T03:15:11.073Z,1008.89
2017-08-17T03:16:11.063Z,1008.85
2017-08-17T03:17:11.052Z,1008.86
2017-08-17T03:18:11.039Z,1008.82
2017-08-17T03:19:11.029Z,1008.82
2017-08-17T03:20:11.018Z,1008.8
2017-08-17T03:21:11.007Z,1008.8
2017-08-17T03:22:10.996Z,1008.81
2017-08-17T03:23:10.986Z,1008.8
2017-08-17T03:24:10.975Z,1008.83
2017-08-17T03:25:10.967Z,1008.82
2017-08-17T03:26:10.952Z,1008.83
2017-08-17T03:27:10.941Z,1008.81
2017-08-17T03:28:10.931Z,1008.83
2017-08-17T03:29:10.919Z,1008.8
2017-08-17T03:30:10.908Z,1008.8
2017-08-17T03:31:10.948Z,1008.84
2017-08-17T03:32:10.884Z,1008.82
2017-08-17T03:33:10.875Z,1008.8
2017-08-17T03:34:10.867Z,1008.8
2017-08-17T03:35:10.850Z,1008.81
2017-08-17T03:36:10.841Z,1008.78
2017-08-17T03:37:10.829Z,1008.77
2017-08-17T03:38:10.869Z,1008.8
2017-08-17T03:39:10.808Z,1008.76
2017-08-17T03:40:10.794Z,1008.77
2017-08-17T03:41:10.784Z,1008.77
2017-08-17T03:42:10.772Z,1008.8
2017-08-17T03:43:10.764Z,1008.75
2017-08-17T03:44:10.753Z,1008.74
2017-08-17T03:45:10.744Z,1008.75
2017-08-17T03:46:10.929Z,1008.73
2017-08-17T03:47:10.718Z,1008.68
2017-08-17T03:48:10.706Z,1008.7
2017-08-17T03:49:10.693Z,1008.72
2017-08-17T03:50:10.684Z,1008.73
2017-08-17T03:51:10.672Z,1008.72
2017-08-17T03:52:10.660Z,1008.73
2017-08-17T03:53:10.648Z,1008.78
2017-08-17T03:54:10.636Z,1008.74
2017-08-17T03:55:10.627Z,1008.72
2017-08-17T03:56:10.615Z,1008.74
2017-08-17T03:57:10.606Z,1008.77
2017-08-17T03:58:10.592Z,1008.75
2017-08-17T03:59:10.582Z,1008.75
2017-08-17T04:00:10.569Z,1008.8
2017-08-17T04:01:10.560Z,1008.78
2017-08-17T04:02:10.548Z,1008.8
2017-08-17T04:03:10.536Z,1008.79
2017-08-17T04:04:10.525Z,1008.81
2017-08-17T04:05:10.516Z,1008.77
2017-08-17T04:06:10.500Z,1008.77
2017-08-17T04:07:10.491Z,1008.79
2017-08-17T04:08:10.479Z,1008.77
2017-08-17T04:09:10.470Z,1008.73
2017-08-17T04:10:10.461Z,1008.72
2017-08-17T04:11:10.444Z,1008.78
2017-08-17T04:12:10.434Z,1008.74
2017-08-17T04:13:10.424Z,1008.74
2017-08-17T04:14:10.413Z,1008.75
2017-08-17T04:15:10.400Z,1008.75
2017-08-17T04:16:10.390Z,1008.75
2017-08-17T04:17:10.378Z,1008.76
2017-08-17T04:18:10.367Z,1008.79
2017-08-17T04:19:10.355Z,1008.75
2017-08-17T04:20:10.346Z,1008.75
2017-08-17T04:21:10.333Z,1008.73
2017-08-17T04:22:10.323Z,1008.71
2017-08-17T04:23:10.342Z,1008.7
2017-08-17T04:24:10.319Z,1008.7
2017-08-17T04:25:10.291Z,1008.73
2017-08-17T04:26:10.279Z,1008.73
2017-08-17T04:27:10.264Z,1008.7
2017-08-17T04:28:10.255Z,1008.7
2017-08-17T04:29:10.241Z,1008.71
2017-08-17T04:30:10.230Z,1008.69
2017-08-17T04:31:10.220Z,1008.7
2017-08-17T04:32:10.209Z,1008.68
2017-08-17T04:33:10.197Z,1008.68
2017-08-17T04:34:10.185Z,1008.69
2017-08-17T04:35:10.175Z,1008.66
2017-08-17T04:36:10.164Z,1008.69
2017-08-17T04:37:10.150Z,1008.67
2017-08-17T04:38:10.138Z,1008.65
2017-08-17T04:39:10.131Z,1008.67
2017-08-17T04:40:10.117Z,1008.62
2017-08-17T04:41:10.106Z,1008.61
2017-08-17T04:42:10.094Z,1008.6
2017-08-17T04:43:10.087Z,1008.59
2017-08-17T04:44:10.071Z,1008.53
2017-08-17T04:45:10.059Z,1008.56
2017-08-17T04:46:10.048Z,1008.58
2017-08-17T04:47:10.037Z,1008.54
2017-08-17T04:48:10.026Z,1008.54
2017-08-17T04:49:10.016Z,1008.54
2017-08-17T04:50:10.005Z,1008.5
2017-08-17T04:51:09.995Z,1008.44
2017-08-17T04:52:09.981Z,1008.46
2017-08-17T04:53:09.970Z,1008.39
2017-08-17T04:54:09.957Z,1008.34
2017-08-17T04:55:09.947Z,1008.36
2017-08-17T04:56:09.938Z,1008.33
2017-08-17T04:57:09.925Z,1008.28
2017-08-17T04:58:09.914Z,1008.25
2017-08-17T04:59:09.902Z,1008.26
2017-08-17T05:00:09.891Z,1008.29
2017-08-17T05:01:09.882Z,1008.26
2017-08-17T05:02:09.869Z,1008.28
2017-08-17T05:03:09.859Z,1008.24
2017-08-17T05:04:09.847Z,1008.22
2017-08-17T05:05:09.836Z,1008.27
2017-08-17T05:06:09.825Z,1008.2
2017-08-17T05:07:09.813Z,1008.19
2017-08-17T05:08:09.801Z,1008.18
2017-08-17T05:09:09.794Z,1008.19
2017-08-17T05:10:09.779Z,1008.2
2017-08-17T05:11:09.769Z,1008.21
2017-08-17T05:12:09.758Z,1008.21
2017-08-17T05:13:09.749Z,1008.18
2017-08-17T05:14:09.734Z,1008.21
2017-08-17T05:15:09.725Z,1008.18
2017-08-17T05:16:09.714Z,1008.17
2017-08-17T05:17:09.701Z,1008.15
2017-08-17T05:18:09.692Z,1008.17
2017-08-17T05:19:09.678Z,1008.16
2017-08-17T05:20:09.668Z,1008.16
2017-08-17T05:21:09.660Z,1008.18
2017-08-17T05:22:09.647Z,1008.16
2017-08-17T05:23:09.635Z,1008.17
2017-08-17T05:24:09.625Z,1008.13
2017-08-17T05:25:09.613Z,1008.15
2017-08-17T05:26:09.602Z,1008.12
2017-08-17T05:27:09.593Z,1008.17
2017-08-17T05:28:09.583Z,1008.17
2017-08-17T05:29:09.570Z,1008.17
2017-08-17T05:30:09.559Z,1008.24
2017-08-17T05:31:09.548Z,1008.22
2017-08-17T05:32:09.535Z,1008.23
2017-08-17T05:33:09.525Z,1008.26
2017-08-17T05:34:09.515Z,1008.2
2017-08-17T05:35:09.505Z,1008.25
2017-08-17T05:36:09.493Z,1008.23
2017-08-17T05:37:09.482Z,1008.23
2017-08-17T05:38:09.473Z,1008.22
2017-08-17T05:39:09.460Z,1008.25
2017-08-17T05:40:09.452Z,1008.19
2017-08-17T05:41:09.440Z,1008.22
2017-08-17T05:42:09.431Z,1008.18
2017-08-17T05:43:09.469Z,1008.18
2017-08-17T05:44:09.409Z,1008.18
2017-08-17T05:45:09.413Z,1008.17
2017-08-17T05:46:09.590Z,1008.18
2017-08-17T05:47:09.378Z,1008.18
2017-08-17T05:48:09.366Z,1008.14
2017-08-17T05:49:09.356Z,1008.14
2017-08-17T05:50:09.346Z,1008.1
2017-08-17T05:51:09.398Z,1008.13
2017-08-17T05:52:09.325Z,1008.17
2017-08-17T05:53:09.313Z,1008.2
2017-08-17T05:54:09.305Z,1008.18
2017-08-17T05:55:09.294Z,1008.16
2017-08-17T05:56:09.285Z,1008.17
2017-08-17T05:57:09.271Z,1008.15
2017-08-17T05:58:09.263Z,1008.17
2017-08-17T05:59:09.251Z,1008.16
2017-08-17T06:00:09.250Z,1008.14
2017-08-17T06:01:09.230Z,1008.11
2017-08-17T06:02:09.220Z,1008.14
2017-08-17T06:03:09.209Z,1008.14
2017-08-17T06:04:09.199Z,1008.06
2017-08-17T06:05:09.189Z,1008.06
2017-08-17T06:06:09.179Z,1008.07
2017-08-17T06:07:09.169Z,1008.05
2017-08-17T06:08:09.158Z,1008.06
2017-08-17T06:09:09.150Z,1008.06
2017-08-17T06:10:09.139Z,1008.11
2017-08-17T06:11:09.131Z,1008.11
2017-08-17T06:12:09.119Z,1008.1
2017-08-17T06:13:09.109Z,1008.06
2017-08-17T06:14:09.150Z,1008.09
2017-08-17T06:15:09.093Z,1008.06
2017-08-17T06:16:09.080Z,1008.05
2017-08-17T06:17:09.072Z,1008.06
2017-08-17T06:18:09.063Z,1008.06
2017-08-17T06:19:09.101Z,1008.04
2017-08-17T06:20:09.044Z,1008.04
2017-08-17T06:21:09.033Z,1008.05
2017-08-17T06:22:09.023Z,1008.08
2017-08-17T06:23:09.014Z,1008.03
2017-08-17T06:24:09.004Z,1008
2017-08-17T06:25:08.993Z,1007.96
2017-08-17T06:26:08.988Z,1007.96
2017-08-17T06:27:08.989Z,1007.96
2017-08-17T06:28:08.967Z,1007.94
2017-08-17T06:29:08.958Z,1007.92
2017-08-17T06:30:08.951Z,1007.89
2017-08-17T06:31:08.943Z,1007.88
2017-08-17T06:32:08.932Z,1007.87
2017-08-17T06:33:08.922Z,1007.88
2017-08-17T06:34:08.910Z,1007.88
2017-08-17T06:35:08.901Z,1007.91
2017-08-17T06:36:08.892Z,1007.96
2017-08-17T06:37:08.885Z,1007.94
2017-08-17T06:38:08.877Z,1007.95
2017-08-17T06:39:08.864Z,1007.96
2017-08-17T06:40:08.856Z,1007.97
2017-08-17T06:41:08.847Z,1007.98
2017-08-17T06:42:08.836Z,1007.99
2017-08-17T06:43:08.828Z,1008.01
2017-08-17T06:44:08.819Z,1008.02
2017-08-17T06:45:08.815Z,1007.98
2017-08-17T06:46:08.802Z,1008
2017-08-17T06:47:08.793Z,1008.04
2017-08-17T06:48:08.783Z,1008.03
2017-08-17T06:49:08.772Z,1008.08
2017-08-17T06:50:08.765Z,1008.06
2017-08-17T06:51:08.757Z,1008.12
2017-08-17T06:52:08.746Z,1008.1
2017-08-17T06:53:08.739Z,1008.08
2017-08-17T06:54:08.729Z,1008.06
2017-08-17T06:55:08.723Z,1008.06
2017-08-17T06:56:08.712Z,1008.06
2017-08-17T06:57:08.704Z,1008.07
2017-08-17T06:58:08.694Z,1008.04
2017-08-17T06:59:08.683Z,1008.04
2017-08-17T07:00:08.676Z,1008.04
2017-08-17T07:01:08.668Z,1008.06
2017-08-17T07:02:08.659Z,1008
2017-08-17T07:03:08.649Z,1008.09
2017-08-17T07:04:08.641Z,1008.07
2017-08-17T07:05:08.683Z,1008.06
2017-08-17T07:06:08.625Z,1008.1
2017-08-17T07:07:08.615Z,1008.1
2017-08-17T07:08:08.610Z,1008.14
2017-08-17T07:09:08.600Z,1008.11
2017-08-17T07:10:08.591Z,1008.09
2017-08-17T07:11:08.582Z,1008.13
2017-08-17T07:12:08.574Z,1008.13
2017-08-17T07:13:08.567Z,1008.13
2017-08-17T07:14:08.560Z,1008.14
2017-08-17T07:15:08.550Z,1008.15
2017-08-17T07:16:08.544Z,1008.16
2017-08-17T07:17:08.536Z,1008.19
2017-08-17T07:18:08.530Z,1008.15
2017-08-17T07:19:08.518Z,1008.2
2017-08-17T07:20:08.510Z,1008.2
2017-08-17T07:21:08.504Z,1008.18
2017-08-17T07:22:08.492Z,1008.16
2017-08-17T07:23:08.486Z,1008.2
2017-08-17T07:24:08.480Z,1008.19
2017-08-17T07:25:08.469Z,1008.17
2017-08-17T07:26:08.461Z,1008.22
2017-08-17T07:27:08.456Z,1008.2
2017-08-17T07:28:08.446Z,1008.21
2017-08-17T07:29:08.436Z,1008.24
2017-08-17T07:30:08.430Z,1008.2
2017-08-17T07:31:08.425Z,1008.19
2017-08-17T07:32:08.414Z,1008.18
2017-08-17T07:33:08.410Z,1008.11
2017-08-17T07:34:08.399Z,1008.11
2017-08-17T07:35:08.392Z,1008.14
2017-08-17T07:36:08.385Z,1008.16
2017-08-17T07:37:08.377Z,1008.1
2017-08-17T07:38:08.371Z,1008.11
2017-08-17T07:39:08.363Z,1008.14
2017-08-17T07:40:08.353Z,1008.14
2017-08-17T07:41:08.347Z,1008.16
2017-08-17T07:42:08.342Z,1008.15
2017-08-17T07:43:08.333Z,1008.14
2017-08-17T07:44:08.325Z,1008.12
2017-08-17T07:45:08.316Z,1008.14
2017-08-17T07:46:08.309Z,1008.15
2017-08-17T07:47:08.505Z,1008.12
2017-08-17T07:48:08.295Z,1008.1
2017-08-17T07:49:08.291Z,1008.11
2017-08-17T07:50:08.281Z,1008.04
2017-08-17T07:51:08.274Z,1008.03
2017-08-17T07:52:08.266Z,1008
2017-08-17T07:53:08.260Z,1007.96
2017-08-17T07:54:08.253Z,1007.96
2017-08-17T07:55:08.245Z,1007.94
2017-08-17T07:56:08.238Z,1007.89
2017-08-17T07:57:08.236Z,1007.88
2017-08-17T07:58:08.224Z,1007.87
2017-08-17T07:59:08.220Z,1007.86
2017-08-17T08:00:08.212Z,1007.89
2017-08-17T08:01:08.205Z,1007.88
2017-08-17T08:02:08.198Z,1007.9
2017-08-17T08:03:08.192Z,1007.89
2017-08-17T08:04:08.187Z,1007.86
2017-08-17T08:05:08.180Z,1007.82
2017-08-17T08:06:08.172Z,1007.87
2017-08-17T08:07:08.167Z,1007.85
2017-08-17T08:08:08.160Z,1007.88
2017-08-17T08:09:08.153Z,1007.87
2017-08-17T08:10:08.146Z,1007.88
2017-08-17T08:11:08.140Z,1007.87
2017-08-17T08:12:08.133Z,1007.88
2017-08-17T08:13:08.129Z,1007.84
2017-08-17T08:14:08.121Z,1007.83
2017-08-17T08:15:08.116Z,1007.88
2017-08-17T08:16:08.109Z,1007.79
2017-08-17T08:17:08.102Z,1007.8
2017-08-17T08:18:08.094Z,1007.81
2017-08-17T08:19:08.089Z,1007.8
2017-08-17T08:20:08.084Z,1007.74
2017-08-17T08:21:08.077Z,1007.77
2017-08-17T08:22:08.077Z,1007.73
2017-08-17T08:23:08.067Z,1007.73
2017-08-17T08:24:08.058Z,1007.73
2017-08-17T08:25:08.053Z,1007.74
2017-08-17T08:26:08.045Z,1007.74
2017-08-17T08:27:08.036Z,1007.73
2017-08-17T08:28:08.032Z,1007.72
2017-08-17T08:29:08.023Z,1007.68
2017-08-17T08:30:08.019Z,1007.64
2017-08-17T08:31:08.011Z,1007.63
2017-08-17T08:32:08.005Z,1007.69
2017-08-17T08:33:07.998Z,1007.69
2017-08-17T08:34:07.991Z,1007.68
2017-08-17T08:35:07.984Z,1007.7
2017-08-17T08:36:07.977Z,1007.67
2017-08-17T08:37:07.984Z,1007.69
2017-08-17T08:38:07.965Z,1007.66
2017-08-17T08:39:07.963Z,1007.66
2017-08-17T08:40:07.953Z,1007.65
2017-08-17T08:41:07.946Z,1007.66
2017-08-17T08:42:07.940Z,1007.67
2017-08-17T08:43:07.934Z,1007.67
2017-08-17T08:44:07.930Z,1007.66
2017-08-17T08:45:07.920Z,1007.67
2017-08-17T08:46:07.910Z,1007.67
2017-08-17T08:47:07.909Z,1007.69
2017-08-17T08:48:07.902Z,1007.68
2017-08-17T08:49:07.893Z,1007.67
2017-08-17T08:50:07.887Z,1007.67
2017-08-17T08:51:07.880Z,1007.69
2017-08-17T08:52:07.873Z,1007.67
2017-08-17T08:53:07.867Z,1007.63
2017-08-17T08:54:07.863Z,1007.63
2017-08-17T08:55:07.857Z,1007.61
2017-08-17T08:56:07.847Z,1007.62
2017-08-17T08:57:07.843Z,1007.61
2017-08-17T08:58:07.839Z,1007.57
2017-08-17T08:59:07.830Z,1007.56
2017-08-17T09:00:07.830Z,1007.55
2017-08-17T09:01:07.816Z,1007.54
2017-08-17T09:02:07.812Z,1007.55
2017-08-17T09:03:07.807Z,1007.51
2017-08-17T09:04:07.799Z,1007.51
2017-08-17T09:05:07.791Z,1007.47
2017-08-17T09:06:07.786Z,1007.43
2017-08-17T09:07:07.783Z,1007.49
2017-08-17T09:08:07.774Z,1007.46
2017-08-17T09:09:07.771Z,1007.45
2017-08-17T09:10:07.762Z,1007.44
2017-08-17T09:11:07.856Z,1007.4
2017-08-17T09:12:07.751Z,1007.39
2017-08-17T09:13:07.746Z,1007.39
2017-08-17T09:14:07.738Z,1007.39
2017-08-17T09:15:07.733Z,1007.41
2017-08-17T09:16:07.726Z,1007.37
2017-08-17T09:17:07.723Z,1007.34
2017-08-17T09:18:07.713Z,1007.37
2017-08-17T09:19:07.709Z,1007.33
2017-08-17T09:20:07.706Z,1007.37
2017-08-17T09:21:07.699Z,1007.33
2017-08-17T09:22:07.691Z,1007.38
2017-08-17T09:23:07.686Z,1007.38
2017-08-17T09:24:07.683Z,1007.37
2017-08-17T09:25:07.675Z,1007.36
2017-08-17T09:26:07.667Z,1007.4
2017-08-17T09:27:07.664Z,1007.38
2017-08-17T09:28:07.659Z,1007.36
2017-08-17T09:29:07.652Z,1007.38
2017-08-17T09:30:07.644Z,1007.42
2017-08-17T09:31:07.644Z,1007.37
2017-08-17T09:32:07.637Z,1007.39
2017-08-17T09:33:07.630Z,1007.35
2017-08-17T09:34:07.626Z,1007.35
2017-08-17T09:35:07.618Z,1007.41
2017-08-17T09:36:07.614Z,1007.4
2017-08-17T09:37:07.608Z,1007.42
2017-08-17T09:38:07.605Z,1007.4
2017-08-17T09:39:07.596Z,1007.36
2017-08-17T09:40:07.591Z,1007.34
2017-08-17T09:41:07.583Z,1007.39
2017-08-17T09:42:07.577Z,1007.37
2017-08-17T09:43:07.573Z,1007.37
2017-08-17T09:44:07.567Z,1007.36
2017-08-17T09:45:07.563Z,1007.34
2017-08-17T09:46:07.553Z,1007.31
2017-08-17T09:47:07.752Z,1007.32
2017-08-17T09:48:07.546Z,1007.37
2017-08-17T09:49:07.539Z,1007.32
2017-08-17T09:50:07.533Z,1007.31
2017-08-17T09:51:07.525Z,1007.29
2017-08-17T09:52:07.517Z,1007.28
2017-08-17T09:53:07.518Z,1007.25
2017-08-17T09:54:07.510Z,1007.21
2017-08-17T09:55:07.501Z,1007.24
2017-08-17T09:56:07.498Z,1007.18
2017-08-17T09:57:07.493Z,1007.16
2017-08-17T09:58:07.484Z,1007.19
2017-08-17T09:59:07.479Z,1007.2
2017-08-17T10:00:07.472Z,1007.26
2017-08-17T10:01:07.466Z,1007.19
2017-08-17T10:02:07.462Z,1007.16
2017-08-17T10:03:07.457Z,1007.17
2017-08-17T10:04:07.448Z,1007.16
2017-08-17T10:05:07.442Z,1007.08
2017-08-17T10:06:07.438Z,1007.12
2017-08-17T10:07:07.429Z,1007.08
2017-08-17T10:08:07.426Z,1007
2017-08-17T10:09:07.422Z,1007.04
2017-08-17T10:10:07.414Z,1007.06
2017-08-17T10:11:07.410Z,1007.04
2017-08-17T10:12:07.403Z,1007.04
2017-08-17T10:13:07.401Z,1007.03
2017-08-17T10:14:07.395Z,1007.06
2017-08-17T10:15:07.386Z,1007.03
2017-08-17T10:16:07.379Z,1007.01
2017-08-17T10:17:07.374Z,1007.01
2017-08-17T10:18:07.372Z,1007.04
2017-08-17T10:19:07.364Z,1006.94
2017-08-17T10:20:07.366Z,1006.9
2017-08-17T10:21:07.356Z,1006.77
2017-08-17T10:22:07.348Z,1006.74
2017-08-17T10:23:07.341Z,1006.79
2017-08-17T10:24:07.336Z,1006.88
2017-08-17T10:25:07.333Z,1006.9
2017-08-17T10:26:07.324Z,1006.89
2017-08-17T10:27:07.320Z,1006.85
2017-08-17T10:28:07.315Z,1006.85
2017-08-17T10:29:07.313Z,1006.87
2017-08-17T10:30:07.308Z,1006.89
2017-08-17T10:31:07.297Z,1006.84
2017-08-17T10:32:07.298Z,1006.9
2017-08-17T10:33:07.290Z,1006.91
2017-08-17T10:34:07.284Z,1006.85
2017-08-17T10:35:07.275Z,1006.86
2017-08-17T10:36:07.270Z,1006.84
2017-08-17T10:37:07.264Z,1006.83
2017-08-17T10:38:07.260Z,1006.83
2017-08-17T10:39:07.254Z,1006.79
2017-08-17T10:40:07.255Z,1006.8
2017-08-17T10:41:07.244Z,1006.79
2017-08-17T10:42:07.239Z,1006.75
2017-08-17T10:43:07.245Z,1006.76
2017-08-17T10:44:07.229Z,1006.78
2017-08-17T10:45:07.223Z,1006.8
2017-08-17T10:46:07.225Z,1006.82
2017-08-17T10:47:07.216Z,1006.83
2017-08-17T10:48:07.207Z,1006.79
2017-08-17T10:49:07.203Z,1006.75
2017-08-17T10:50:07.196Z,1006.75
2017-08-17T10:51:07.224Z,1006.75
2017-08-17T10:52:07.188Z,1006.77
2017-08-17T10:53:07.182Z,1006.81
2017-08-17T10:54:07.177Z,1006.76
2017-08-17T10:55:07.176Z,1006.7
2017-08-17T10:56:07.167Z,1006.74
2017-08-17T10:57:07.162Z,1006.7
2017-08-17T10:58:07.156Z,1006.71
2017-08-17T10:59:07.153Z,1006.69
2017-08-17T11:00:07.148Z,1006.75
2017-08-17T11:01:07.142Z,1006.68
2017-08-17T11:02:07.143Z,1006.76
2017-08-17T11:03:07.133Z,1006.74
2017-08-17T11:04:07.125Z,1006.78
2017-08-17T11:05:07.124Z,1006.8
2017-08-17T11:06:07.117Z,1006.77
2017-08-17T11:07:07.113Z,1006.77
2017-08-17T11:08:07.116Z,1006.81
2017-08-17T11:09:07.101Z,1006.79
2017-08-17T11:10:07.098Z,1006.78
2017-08-17T11:11:07.091Z,1006.75
2017-08-17T11:12:07.083Z,1006.71
2017-08-17T11:13:07.081Z,1006.72
2017-08-17T11:14:07.075Z,1006.7
2017-08-17T11:15:07.071Z,1006.76
2017-08-17T11:16:07.063Z,1006.74
2017-08-17T11:17:07.057Z,1006.72
2017-08-17T11:18:07.053Z,1006.74
2017-08-17T11:19:07.050Z,1006.76
2017-08-17T11:20:07.042Z,1006.75
2017-08-17T11:21:07.037Z,1006.76
2017-08-17T11:22:07.035Z,1006.79
2017-08-17T11:23:07.052Z,1006.88
2017-08-17T11:24:07.022Z,1006.73
2017-08-17T11:25:07.022Z,1006.7
2017-08-17T11:26:07.013Z,1006.7
2017-08-17T11:27:07.008Z,1006.73
2017-08-17T11:28:07.003Z,1006.7
2017-08-17T11:29:07.048Z,1006.78
2017-08-17T11:30:06.996Z,1006.7
2017-08-17T11:31:06.990Z,1006.68
2017-08-17T11:32:06.986Z,1006.65
2017-08-17T11:33:06.981Z,1006.66
2017-08-17T11:34:06.980Z,1006.7
2017-08-17T11:35:06.973Z,1006.67
2017-08-17T11:36:06.969Z,1006.73
2017-08-17T11:37:06.963Z,1006.72
2017-08-17T11:38:06.958Z,1006.71
2017-08-17T11:39:06.958Z,1006.72
2017-08-17T11:40:06.952Z,1006.74
2017-08-17T11:41:06.946Z,1006.79
2017-08-17T11:42:06.943Z,1006.74
2017-08-17T11:43:06.936Z,1006.71
2017-08-17T11:44:06.982Z,1006.74
2017-08-17T11:45:06.927Z,1006.7
2017-08-17T11:46:06.922Z,1006.71
2017-08-17T11:47:07.121Z,1006.7
2017-08-17T11:48:06.913Z,1006.71
2017-08-17T11:49:06.959Z,1006.61
2017-08-17T11:50:06.904Z,1006.68
2017-08-17T11:51:06.900Z,1006.66
2017-08-17T11:52:06.898Z,1006.64
2017-08-17T11:53:06.893Z,1006.68
2017-08-17T11:54:06.888Z,1006.61
2017-08-17T11:55:06.882Z,1006.56
2017-08-17T11:56:06.881Z,1006.62
2017-08-17T11:57:06.876Z,1006.57
2017-08-17T11:58:06.873Z,1006.56
2017-08-17T11:59:06.869Z,1006.57
2017-08-17T12:00:06.869Z,1006.62
2017-08-17T12:01:06.858Z,1006.58
2017-08-17T12:02:06.857Z,1006.63
2017-08-17T12:03:06.849Z,1006.67
2017-08-17T12:04:06.847Z,1006.62
2017-08-17T12:05:06.845Z,1006.7
2017-08-17T12:06:06.840Z,1006.6
2017-08-17T12:07:06.836Z,1006.59
2017-08-17T12:08:06.833Z,1006.56